Chase, Michigan
Current Conditions -  °F | °C
As of 5:54 PM on Wednesday 26 Nov 2014 (Local Time) from KRQB Reporting Station
Overcast Overcast  
Wind Chill: 29°   Ceiling: 3200
Heat Index: 29°   Visibility: 10mi
Dew Point: 24°   Wind: 0mph
Humidity: 84%   Direction: NA
Pressure: 30.11"   Gusts: NA
Location:  43.89°N, 85.64°W
Report Text: KRQB 262254Z AUTO 00000KT 10SM OVC032 M02/M04 A3011 RMK AO2 T10191043
Loading
Personal Weather Stations






























Interactive Weather Map New forecast layout! Learn more

10-Day Weather Forecast

Advertisements
Track Severe Weather on mobile